createdAt,value
2022-12-25T00:01:39.062Z,101279.53
2022-12-25T00:04:05.589Z,101274.03
2022-12-25T00:06:32.171Z,101274.75
2022-12-25T00:08:58.623Z,101281.88
2022-12-25T00:11:25.087Z,101283.44
2022-12-25T00:13:51.472Z,101294.91
2022-12-25T00:16:20.564Z,101293.03
2022-12-25T00:18:47.900Z,101282.38
2022-12-25T00:21:14.657Z,101276.19
2022-12-25T00:23:41.372Z,101285.06
2022-12-25T00:26:10.689Z,101266.19
2022-12-25T00:28:37.343Z,101266.31
2022-12-25T00:31:22.812Z,101277.66
2022-12-25T00:33:51.022Z,101275.78
2022-12-25T00:36:20.225Z,101276.53
2022-12-25T00:38:46.754Z,101273.81
2022-12-25T00:41:16.743Z,101279.13
2022-12-25T00:43:43.507Z,101270.84
2022-12-25T00:46:12.744Z,101278.97
2022-12-25T00:48:39.807Z,101278.91
2022-12-25T00:51:08.846Z,101276.16
2022-12-25T00:53:35.579Z,101283.28
2022-12-25T00:56:05.158Z,101280.41
2022-12-25T00:58:33.327Z,101277.53
2022-12-25T01:00:59.895Z,101286.28
2022-12-25T01:03:26.843Z,101292.50
2022-12-25T01:06:01.503Z,101295.03
2022-12-25T01:08:29.613Z,101298.47
2022-12-25T01:10:58.219Z,101301.59
2022-12-25T01:13:25.417Z,101296.22
2022-12-25T01:15:52.667Z,101304.69
2022-12-25T01:18:23.666Z,101301.63
2022-12-25T01:20:50.573Z,101300.72
2022-12-25T01:23:17.295Z,101297.00
2022-12-25T01:25:43.740Z,101302.25
2022-12-25T01:28:10.363Z,101295.13
2022-12-25T01:30:36.786Z,101297.69
2022-12-25T01:33:03.347Z,101298.50
2022-12-25T01:35:29.779Z,101287.47
2022-12-25T01:37:56.189Z,101285.19
2022-12-25T01:40:22.737Z,101293.03
2022-12-25T01:42:49.110Z,101285.34
2022-12-25T01:45:30.565Z,101291.38
2022-12-25T01:47:57.451Z,101286.66
2022-12-25T01:50:24.435Z,101288.19
2022-12-25T01:52:51.859Z,101294.28
2022-12-25T01:55:18.366Z,101289.84
2022-12-25T01:57:45.208Z,101301.47
2022-12-25T02:00:13.709Z,101292.50
2022-12-25T02:02:42.265Z,101295.13
2022-12-25T02:05:24.960Z,101295.19
2022-12-25T02:07:51.919Z,101296.25
2022-12-25T02:10:18.470Z,101297.13
2022-12-25T02:12:45.724Z,101290.00
2022-12-25T02:15:16.317Z,101297.19
2022-12-25T02:17:50.634Z,101281.28
2022-12-25T02:20:54.921Z,101284.91
2022-12-25T02:23:43.273Z,101272.59
2022-12-25T02:26:09.653Z,101272.53
2022-12-25T02:28:45.999Z,101273.41
2022-12-25T02:31:18.328Z,101276.38
2022-12-25T02:34:03.267Z,101268.53
2022-12-25T02:36:40.352Z,101269.50
2022-12-25T02:39:34.915Z,101263.38
2022-12-25T02:42:05.995Z,101261.03
2022-12-25T02:44:54.610Z,101256.94
2022-12-25T02:47:41.290Z,101256.28
2022-12-25T02:50:27.003Z,101252.13
2022-12-25T02:53:15.320Z,101250.53
2022-12-25T02:56:02.161Z,101268.53
2022-12-25T02:58:48.848Z,101255.94
2022-12-25T03:01:37.700Z,101255.03
2022-12-25T03:04:28.367Z,101255.91
2022-12-25T03:07:23.325Z,101252.28
2022-12-25T03:10:14.766Z,101247.72
2022-12-25T03:12:49.376Z,101252.06
2022-12-25T03:15:36.438Z,101244.75
2022-12-25T03:18:06.542Z,101237.53
2022-12-25T03:20:52.051Z,101235.66
2022-12-25T03:23:40.349Z,101229.41
2022-12-25T03:26:26.623Z,101214.09
2022-12-25T03:28:53.132Z,101216.78
2022-12-25T03:31:29.873Z,101215.03
2022-12-25T03:34:49.065Z,101202.47
2022-12-25T03:37:43.215Z,101210.59
2022-12-25T03:40:50.437Z,101198.91
2022-12-25T03:43:46.863Z,101199.69
2022-12-25T03:46:35.214Z,101193.22
2022-12-25T03:49:36.821Z,101200.44
2022-12-25T03:52:24.473Z,101182.56
2022-12-25T03:55:10.291Z,101194.31
2022-12-25T03:57:55.596Z,101192.53
2022-12-25T04:00:40.511Z,101192.59
2022-12-25T04:03:25.451Z,101202.31
2022-12-25T04:06:10.652Z,101203.91
2022-12-25T04:08:55.444Z,101208.44
2022-12-25T04:11:44.667Z,101198.69
2022-12-25T04:14:29.490Z,101198.47
2022-12-25T04:17:14.350Z,101206.53
2022-12-25T04:19:59.427Z,101197.56
2022-12-25T04:22:44.585Z,101196.75
2022-12-25T04:25:29.650Z,101194.13
2022-12-25T04:28:22.468Z,101210.03
2022-12-25T04:31:07.771Z,101209.97
2022-12-25T04:33:52.867Z,101216.16
2022-12-25T04:36:19.236Z,101227.53
2022-12-25T04:38:45.667Z,101222.91
2022-12-25T04:41:13.506Z,101227.97
2022-12-25T04:43:40.228Z,101237.66
2022-12-25T04:46:06.917Z,101227.78
2022-12-25T04:48:36.314Z,101222.31
2022-12-25T04:51:20.399Z,101232.94
2022-12-25T04:53:47.965Z,101227.50
2022-12-25T04:56:15.405Z,101222.97
2022-12-25T04:58:43.022Z,101230.75
2022-12-25T05:01:09.740Z,101226.16
2022-12-25T05:03:37.264Z,101222.56
2022-12-25T05:06:04.419Z,101219.06
2022-12-25T05:08:32.471Z,101220.66
2022-12-25T05:10:59.141Z,101231.41
2022-12-25T05:13:25.714Z,101226.03
2022-12-25T05:15:52.594Z,101216.22
2022-12-25T05:18:19.053Z,101208.13
2022-12-25T05:20:52.441Z,101208.13
2022-12-25T05:23:18.987Z,101207.94
2022-12-25T05:25:45.355Z,101195.47
2022-12-25T05:28:11.735Z,101199.06
2022-12-25T05:30:38.167Z,101195.41
2022-12-25T05:33:04.972Z,101198.97
2022-12-25T05:35:31.365Z,101191.69
2022-12-25T05:37:58.044Z,101190.84
2022-12-25T05:40:24.508Z,101196.16
2022-12-25T05:42:50.886Z,101202.31
2022-12-25T05:45:17.255Z,101193.16
2022-12-25T05:47:43.662Z,101187.63
2022-12-25T05:50:10.134Z,101174.19
2022-12-25T05:52:36.740Z,101170.69
2022-12-25T05:55:03.333Z,101171.56
2022-12-25T05:57:30.670Z,101171.50
2022-12-25T05:59:57.759Z,101174.19
2022-12-25T06:02:24.976Z,101167.84
2022-12-25T06:04:51.566Z,101162.63
2022-12-25T06:07:17.989Z,101164.41
2022-12-25T06:09:44.341Z,101155.47
2022-12-25T06:12:10.796Z,101161.81
2022-12-25T06:14:37.170Z,101154.03
2022-12-25T06:17:03.692Z,101152.59
2022-12-25T06:19:30.210Z,101154.66
2022-12-25T06:21:56.595Z,101156.53
2022-12-25T06:24:23.499Z,101147.66
2022-12-25T06:26:50.310Z,101144.31
2022-12-25T06:29:16.873Z,101151.59
2022-12-25T06:31:43.332Z,101141.13
2022-12-25T06:34:10.324Z,101135.06
2022-12-25T06:36:38.133Z,101145.09
2022-12-25T06:39:04.691Z,101141.59
2022-12-25T06:41:31.373Z,101137.44
2022-12-25T06:44:00.518Z,101131.41
2022-12-25T06:46:29.884Z,101133.47
2022-12-25T06:48:58.299Z,101131.88
2022-12-25T06:51:30.155Z,101138.84
2022-12-25T06:53:56.717Z,101135.47
2022-12-25T06:56:25.929Z,101129.13
2022-12-25T06:59:04.497Z,101128.72
2022-12-25T07:01:35.455Z,101126.94
2022-12-25T07:04:05.436Z,101134.81
2022-12-25T07:06:32.076Z,101134.75
2022-12-25T07:08:58.440Z,101134.47
2022-12-25T07:11:25.080Z,101140.63
2022-12-25T07:13:51.558Z,101150.28
2022-12-25T07:16:18.304Z,101143.91
2022-12-25T07:18:44.805Z,101138.44
2022-12-25T07:21:13.900Z,101147.47
2022-12-25T07:23:40.781Z,101158.97
2022-12-25T07:26:07.850Z,101152.63
2022-12-25T07:28:34.405Z,101154.38
2022-12-25T07:31:05.623Z,101160.56
2022-12-25T07:33:32.535Z,101143.63
2022-12-25T07:35:58.933Z,101136.41
2022-12-25T07:38:25.508Z,101143.63
2022-12-25T07:40:53.052Z,101142.72
2022-12-25T07:43:19.999Z,101155.19
2022-12-25T07:45:46.822Z,101155.06
2022-12-25T07:48:16.634Z,101164.91
2022-12-25T07:50:43.713Z,101158.72
2022-12-25T07:53:10.202Z,101162.22
2022-12-25T07:55:36.644Z,101173.91
2022-12-25T07:58:03.083Z,101164.09
2022-12-25T08:00:33.570Z,101158.72
2022-12-25T08:03:00.245Z,101159.66
2022-12-25T08:05:27.022Z,101154.22
2022-12-25T08:07:57.680Z,101158.59
2022-12-25T08:10:25.109Z,101164.84
2022-12-25T08:12:52.081Z,101168.38
2022-12-25T08:15:18.536Z,101171.88
2022-12-25T08:17:44.955Z,101163.81
2022-12-25T08:20:11.810Z,101182.63
2022-12-25T08:22:38.220Z,101182.56
2022-12-25T08:25:04.890Z,101189.59
2022-12-25T08:27:31.247Z,101186.06
2022-12-25T08:29:57.616Z,101179.81
2022-12-25T08:32:24.110Z,101183.38
2022-12-25T08:34:50.533Z,101183.44
2022-12-25T08:37:16.930Z,101190.56
2022-12-25T08:39:43.303Z,101191.44
2022-12-25T08:42:09.749Z,101179.81
2022-12-25T08:44:36.254Z,101190.56
2022-12-25T08:47:02.685Z,101195.94
2022-12-25T08:49:29.329Z,101203.06
2022-12-25T08:51:55.939Z,101198.63
2022-12-25T08:54:22.385Z,101186.06
2022-12-25T08:56:48.923Z,101184.22
2022-12-25T08:59:15.306Z,101194.06
2022-12-25T09:01:41.796Z,101201.97
2022-12-25T09:04:08.352Z,101193.09
2022-12-25T09:06:34.774Z,101193.03
2022-12-25T09:09:01.337Z,101193.88
2022-12-25T09:11:27.835Z,101202.94
2022-12-25T09:13:54.269Z,101175.84
2022-12-25T09:16:22.073Z,101171.38
2022-12-25T09:18:49.316Z,101180.25
2022-12-25T09:21:16.762Z,101182.84
2022-12-25T09:23:43.897Z,101189.97
2022-12-25T09:26:14.279Z,101184.59
2022-12-25T09:28:46.603Z,101184.41
2022-12-25T09:31:16.893Z,101182.69
2022-12-25T09:33:43.294Z,101186.31
2022-12-25T09:36:10.781Z,101190.53
2022-12-25T09:38:37.242Z,101178.09
2022-12-25T09:41:29.866Z,101184.06
2022-12-25T09:44:03.590Z,101163.41
2022-12-25T09:46:39.575Z,101155.97
2022-12-25T09:49:16.427Z,101159.38
2022-12-25T09:51:45.654Z,101154.94
2022-12-25T09:54:29.811Z,101160.31
2022-12-25T09:56:56.313Z,101162.94
2022-12-25T09:59:27.299Z,101171.81
2022-12-25T10:02:06.197Z,101168.25
2022-12-25T10:04:37.459Z,101166.59
2022-12-25T10:07:15.192Z,101174.50
2022-12-25T10:10:14.237Z,101171.75
2022-12-25T10:13:19.165Z,101167.09
2022-12-25T10:16:05.447Z,101160.66
2022-12-25T10:18:49.774Z,101156.00
2022-12-25T10:21:18.843Z,101159.34
2022-12-25T10:23:52.797Z,101155.81
2022-12-25T10:26:21.797Z,101154.25
2022-12-25T10:28:58.716Z,101155.22
2022-12-25T10:31:28.387Z,101155.34
2022-12-25T10:33:55.301Z,101149.16
2022-12-25T10:36:24.582Z,101151.00
2022-12-25T10:38:51.267Z,101142.06
2022-12-25T10:41:42.304Z,101124.09
2022-12-25T10:44:21.389Z,101131.91
2022-12-25T10:46:49.848Z,101133.69
2022-12-25T10:49:19.719Z,101117.53
2022-12-25T10:51:46.192Z,101105.78
2022-12-25T10:54:31.266Z,101092.34
2022-12-25T10:57:02.393Z,101070.91
2022-12-25T10:59:34.036Z,101070.00
2022-12-25T11:02:27.646Z,101063.69
2022-12-25T11:05:14.947Z,101058.25
2022-12-25T11:07:55.192Z,101058.13
2022-12-25T11:10:35.424Z,101064.41
2022-12-25T11:13:05.316Z,101063.38
2022-12-25T11:15:40.721Z,101053.47
2022-12-25T11:18:22.560Z,101038.09
2022-12-25T11:21:19.199Z,101039.78
2022-12-25T11:23:48.785Z,101048.56
2022-12-25T11:26:16.593Z,101033.28
2022-12-25T11:28:45.577Z,101039.63
2022-12-25T11:31:20.963Z,101029.81
2022-12-25T11:34:03.262Z,101009.13
2022-12-25T11:36:45.381Z,101008.09
2022-12-25T11:39:25.139Z,101004.63
2022-12-25T11:42:08.475Z,100989.25
2022-12-25T11:44:51.009Z,100978.56
2022-12-25T11:47:35.647Z,100983.09
2022-12-25T11:50:20.934Z,100990.22
2022-12-25T11:52:48.523Z,100994.03
2022-12-25T11:55:39.695Z,100992.28
2022-12-25T11:58:16.639Z,101000.34
2022-12-25T12:00:47.325Z,101001.31
2022-12-25T12:03:20.834Z,100994.19
2022-12-25T12:06:06.977Z,100989.75
2022-12-25T12:08:35.474Z,100987.94
2022-12-25T12:11:17.117Z,100996.88
2022-12-25T12:14:13.961Z,100992.28
2022-12-25T12:16:40.496Z,100995.03
2022-12-25T12:19:34.802Z,100985.16
2022-12-25T12:22:04.007Z,100976.13
2022-12-25T12:24:38.951Z,100971.72
2022-12-25T12:27:19.435Z,100972.50
2022-12-25T12:29:50.467Z,100969.88
2022-12-25T12:32:28.957Z,100966.31
2022-12-25T12:34:56.688Z,100958.25
2022-12-25T12:37:40.418Z,100968.13
2022-12-25T12:40:21.553Z,100959.34
2022-12-25T12:42:50.542Z,100965.53
2022-12-25T12:45:21.042Z,100952.16
2022-12-25T12:47:49.802Z,100950.31
2022-12-25T12:50:37.365Z,100953.09
2022-12-25T12:53:28.162Z,100946.94
2022-12-25T12:55:55.451Z,100934.44
2022-12-25T12:58:33.883Z,100935.31
2022-12-25T13:01:22.494Z,100935.13
2022-12-25T13:04:10.351Z,100944.16
2022-12-25T13:06:58.722Z,100937.81
2022-12-25T13:09:43.457Z,100937.13
2022-12-25T13:12:12.763Z,100929.06
2022-12-25T13:14:45.590Z,100924.69
2022-12-25T13:17:17.057Z,100908.66
2022-12-25T13:19:44.278Z,100896.13
2022-12-25T13:22:24.362Z,100897.97
2022-12-25T13:24:59.491Z,100888.06
2022-12-25T13:27:31.105Z,100898.75
2022-12-25T13:29:58.729Z,100904.91
2022-12-25T13:32:26.910Z,100900.47
2022-12-25T13:34:54.602Z,100897.78
2022-12-25T13:37:24.623Z,100896.84
2022-12-25T13:39:59.184Z,100906.81
2022-12-25T13:42:27.385Z,100900.56
2022-12-25T13:45:24.825Z,100898.81
2022-12-25T13:47:55.504Z,100908.72
2022-12-25T13:50:32.011Z,100898.09
2022-12-25T13:53:11.051Z,100899.94
2022-12-25T13:55:37.852Z,100894.56
2022-12-25T13:58:06.997Z,100899.00
2022-12-25T14:00:52.675Z,100904.38
2022-12-25T14:03:24.841Z,100908.00
2022-12-25T14:06:02.382Z,100908.88
2022-12-25T14:08:32.089Z,100903.50
2022-12-25T14:11:03.626Z,100900.88
2022-12-25T14:13:35.560Z,100902.72
2022-12-25T14:16:02.527Z,100889.31
2022-12-25T14:18:30.738Z,100889.25
2022-12-25T14:21:06.552Z,100893.84
2022-12-25T14:23:45.086Z,100902.97
2022-12-25T14:26:23.362Z,100900.19
2022-12-25T14:28:53.030Z,100895.03
2022-12-25T14:31:21.178Z,100889.78
2022-12-25T14:33:48.721Z,100896.09
2022-12-25T14:36:15.640Z,100898.00
2022-12-25T14:38:43.838Z,100905.28
2022-12-25T14:41:33.384Z,100895.47
2022-12-25T14:44:02.901Z,100895.47
2022-12-25T14:46:32.055Z,100883.13
2022-12-25T14:49:09.467Z,100897.34
2022-12-25T14:51:39.032Z,100899.19
2022-12-25T14:54:14.665Z,100895.63
2022-12-25T14:56:47.599Z,100893.88
2022-12-25T14:59:18.620Z,100881.41
2022-12-25T15:01:51.125Z,100882.34
2022-12-25T15:04:18.905Z,100887.91
2022-12-25T15:07:10.729Z,100882.59
2022-12-25T15:09:37.762Z,100884.50
2022-12-25T15:12:04.477Z,100891.72
2022-12-25T15:14:31.544Z,100901.50
2022-12-25T15:17:01.266Z,100906.88
2022-12-25T15:19:38.221Z,100895.25
2022-12-25T15:22:05.695Z,100898.88
2022-12-25T15:24:32.136Z,100893.59
2022-12-25T15:27:00.325Z,100896.31
2022-12-25T15:30:00.184Z,100896.31
2022-12-25T15:32:18.959Z,100906.16
2022-12-25T15:34:49.558Z,100907.06
2022-12-25T15:37:17.385Z,100910.53
2022-12-25T15:39:43.830Z,100910.53
2022-12-25T15:42:15.641Z,100906.94
2022-12-25T15:44:42.772Z,100903.41
2022-12-25T15:47:10.555Z,100907.91
2022-12-25T15:49:37.001Z,100906.09
2022-12-25T15:52:05.143Z,100907.06
2022-12-25T15:54:32.557Z,100906.16
2022-12-25T15:57:02.774Z,100895.41
2022-12-25T15:59:29.360Z,100896.44
2022-12-25T16:01:58.183Z,100902.78
2022-12-25T16:04:26.260Z,100895.72
2022-12-25T16:06:53.145Z,100897.63
2022-12-25T16:09:21.361Z,100896.84
2022-12-25T16:11:48.897Z,100916.56
2022-12-25T16:14:15.849Z,100909.44
2022-12-25T16:16:42.469Z,100907.59
2022-12-25T16:19:08.880Z,100904.13
2022-12-25T16:21:42.803Z,100911.34
2022-12-25T16:24:09.487Z,100902.47
2022-12-25T16:26:36.043Z,100901.63
2022-12-25T16:29:07.309Z,100903.41
2022-12-25T16:31:34.911Z,100911.47
2022-12-25T16:34:01.688Z,100909.56
2022-12-25T16:36:28.162Z,100909.56
2022-12-25T16:38:54.614Z,100911.19
2022-12-25T16:41:21.745Z,100910.22
2022-12-25T16:43:48.409Z,100907.53
2022-12-25T16:46:21.140Z,100902.16
2022-12-25T16:48:47.627Z,100901.38
2022-12-25T16:51:19.349Z,100896.91
2022-12-25T16:53:46.424Z,100887.91
2022-12-25T16:56:16.353Z,100880.78
2022-12-25T16:58:45.817Z,100876.44
2022-12-25T17:01:15.010Z,100886.34
2022-12-25T17:03:41.783Z,100883.56
2022-12-25T17:06:20.547Z,100884.44
2022-12-25T17:08:47.360Z,100884.50
2022-12-25T17:11:14.023Z,100896.25
2022-12-25T17:13:40.590Z,100902.47
2022-12-25T17:16:13.917Z,100899.78
2022-12-25T17:18:40.428Z,100903.34
2022-12-25T17:21:07.277Z,100902.28
2022-12-25T17:23:33.762Z,100901.38
2022-12-25T17:26:01.521Z,100890.59
2022-12-25T17:28:27.925Z,100896.78
2022-12-25T17:30:54.561Z,100903.13
2022-12-25T17:33:20.985Z,100896.91
2022-12-25T17:35:47.424Z,100912.13
2022-12-25T17:38:13.957Z,100909.56
2022-12-25T17:40:40.410Z,100900.72
2022-12-25T17:43:06.864Z,100904.44
2022-12-25T17:45:36.520Z,100897.34
2022-12-25T17:48:03.394Z,100891.97
2022-12-25T17:50:29.796Z,100887.59
2022-12-25T17:52:56.224Z,100875.28
2022-12-25T17:55:22.620Z,100879.78
2022-12-25T17:57:49.075Z,100884.31
2022-12-25T18:00:15.855Z,100887.78
2022-12-25T18:02:47.114Z,100876.06
2022-12-25T18:05:13.908Z,100877.81
2022-12-25T18:07:40.397Z,100876.00
2022-12-25T18:10:07.344Z,100871.41
2022-12-25T18:12:33.809Z,100863.41
2022-12-25T18:15:00.252Z,100865.16
2022-12-25T18:17:27.063Z,100860.72
2022-12-25T18:19:53.650Z,100864.19
2022-12-25T18:22:20.545Z,100865.94
2022-12-25T18:24:46.895Z,100874.94
2022-12-25T18:27:13.288Z,100883.91
2022-12-25T18:29:39.821Z,100878.41
2022-12-25T18:32:06.342Z,100876.44
2022-12-25T18:34:32.977Z,100886.34
2022-12-25T18:37:03.018Z,100880.78
2022-12-25T18:39:31.189Z,100877.00
2022-12-25T18:42:15.990Z,100880.50
2022-12-25T18:44:42.341Z,100871.47
2022-12-25T18:47:08.716Z,100869.56
2022-12-25T18:49:35.297Z,100866.94
2022-12-25T18:52:48.460Z,100862.34
2022-12-25T18:54:49.600Z,100866.78
2022-12-25T18:57:16.218Z,100866.88
2022-12-25T18:59:42.705Z,100874.06
2022-12-25T19:02:11.632Z,100869.56
2022-12-25T19:04:38.187Z,100874.94
2022-12-25T19:07:04.675Z,100876.69
2022-12-25T19:09:31.383Z,100873.03
2022-12-25T19:11:57.810Z,100871.31
2022-12-25T19:14:26.769Z,100874.94
2022-12-25T19:16:54.240Z,100873.22
2022-12-25T19:19:21.518Z,100873.34
2022-12-25T19:21:55.056Z,100878.91
2022-12-25T19:24:22.269Z,100873.69
2022-12-25T19:26:48.713Z,100880.97
2022-12-25T19:29:15.950Z,100876.63
2022-12-25T19:31:43.278Z,100893.69
2022-12-25T19:34:10.546Z,100892.91
2022-12-25T19:36:38.902Z,100885.88
2022-12-25T19:39:06.579Z,100882.31
2022-12-25T19:41:33.479Z,100887.78
2022-12-25T19:43:59.942Z,100877.03
2022-12-25T19:46:32.028Z,100874.34
2022-12-25T19:49:04.752Z,100867.22
2022-12-25T19:51:38.143Z,100878.75
2022-12-25T19:54:05.946Z,100882.41
2022-12-25T19:56:33.409Z,100884.22
2022-12-25T19:59:00.414Z,100888.72
2022-12-25T20:01:29.080Z,100893.22
2022-12-25T20:03:56.452Z,100901.22
2022-12-25T20:06:30.393Z,100902.94
2022-12-25T20:08:59.731Z,100889.50
2022-12-25T20:11:27.996Z,100899.31
2022-12-25T20:13:54.813Z,100901.22
2022-12-25T20:16:21.412Z,100897.50
2022-12-25T20:18:47.819Z,100898.34
2022-12-25T20:21:17.753Z,100893.88
2022-12-25T20:23:46.462Z,100884.84
2022-12-25T20:26:14.459Z,100874.94
2022-12-25T20:28:42.257Z,100871.31
2022-12-25T20:31:12.433Z,100878.53
2022-12-25T20:33:38.980Z,100865.09
2022-12-25T20:36:06.299Z,100856.13
2022-12-25T20:38:33.456Z,100872.09
2022-12-25T20:41:26.324Z,100872.91
2022-12-25T20:43:50.536Z,100873.63
2022-12-25T20:46:17.143Z,100877.81
2022-12-25T20:48:44.127Z,100875.97
2022-12-25T20:51:18.660Z,100881.28
2022-12-25T20:53:45.460Z,100874.94
2022-12-25T20:56:14.544Z,100867.84
2022-12-25T20:58:41.478Z,100873.09
2022-12-25T21:01:11.417Z,100880.31
2022-12-25T21:03:38.552Z,100878.59
2022-12-25T21:06:06.179Z,100879.44
2022-12-25T21:08:32.572Z,100891.06
2022-12-25T21:11:00.890Z,100888.31
2022-12-25T21:13:33.239Z,100894.53
2022-12-25T21:16:00.592Z,100885.53
2022-12-25T21:18:28.368Z,100887.34
2022-12-25T21:20:57.602Z,100884.66
2022-12-25T21:23:28.108Z,100889.09
2022-12-25T21:25:57.361Z,100888.13
2022-12-25T21:28:26.563Z,100889.94
2022-12-25T21:30:53.161Z,100891.63
2022-12-25T21:33:37.956Z,100897.88
2022-12-25T21:36:06.563Z,100887.13
2022-12-25T21:38:33.420Z,100894.31
2022-12-25T21:41:07.975Z,100889.03
2022-12-25T21:43:35.163Z,100899.78
2022-12-25T21:46:03.997Z,100887.25
2022-12-25T21:48:30.418Z,100894.47
2022-12-25T21:51:20.727Z,100894.47
2022-12-25T21:53:47.234Z,100894.53
2022-12-25T21:56:13.707Z,100885.69
2022-12-25T21:58:40.182Z,100889.34
2022-12-25T22:01:06.703Z,100896.53
2022-12-25T22:03:33.199Z,100893.16
2022-12-25T22:06:21.575Z,100900.25
2022-12-25T22:08:48.400Z,100893.28
2022-12-25T22:11:33.175Z,100885.31
2022-12-25T22:14:18.022Z,100892.50
2022-12-25T22:17:02.973Z,100886.16
2022-12-25T22:19:45.035Z,100888.00
2022-12-25T22:22:12.059Z,100871.94
2022-12-25T22:24:38.451Z,100875.59
2022-12-25T22:27:04.953Z,100876.63
2022-12-25T22:29:31.415Z,100872.25
2022-12-25T22:31:57.919Z,100867.91
2022-12-25T22:34:24.363Z,100863.59
2022-12-25T22:36:50.866Z,100862.78
2022-12-25T22:39:17.311Z,100863.81
2022-12-25T22:41:43.786Z,100871.00
2022-12-25T22:44:18.288Z,100874.66
2022-12-25T22:46:45.103Z,100871.00
2022-12-25T22:49:11.758Z,100866.50
2022-12-25T22:51:38.168Z,100872.84
2022-12-25T22:54:04.571Z,100862.09
2022-12-25T22:56:31.005Z,100864.78
2022-12-25T22:58:57.522Z,100861.22
2022-12-25T23:01:24.014Z,100860.25
2022-12-25T23:03:54.508Z,100879.84
2022-12-25T23:06:21.322Z,100865.63
2022-12-25T23:08:48.909Z,100864.59
2022-12-25T23:11:15.603Z,100859.00
2022-12-25T23:14:00.906Z,100860.50
2022-12-25T23:16:27.667Z,100863.06
2022-12-25T23:19:13.094Z,100861.03
2022-12-25T23:21:59.040Z,100853.69
2022-12-25T23:24:44.499Z,100852.63
2022-12-25T23:27:11.567Z,100851.69
2022-12-25T23:29:39.793Z,100851.50
2022-12-25T23:32:15.763Z,100850.38
2022-12-25T23:34:44.264Z,100845.91
2022-12-25T23:37:11.405Z,100851.19
2022-12-25T23:39:38.247Z,100846.59
2022-12-25T23:42:04.767Z,100847.47
2022-12-25T23:44:31.226Z,100849.97
2022-12-25T23:46:58.040Z,100856.34
2022-12-25T23:49:26.175Z,100857.13
2022-12-25T23:51:53.463Z,100864.28
2022-12-25T23:54:22.924Z,100863.44
2022-12-25T23:56:49.499Z,100870.47
2022-12-25T23:59:15.990Z,100868.72
